Ty Lotus — DSNU7 — position and weather

sailwx.info

Track history (hours):
 
Tides and Currents Weather Stations Pressure Air Temp Water Temp Dewpoint Dewpoint Depression Visibility Wind Speed Wind Dir Waves Ship Positions

Ty Lotus

Last reported at 2015-Feb-27 11:32 UTC. Time now 2015-Feb-28 00:43 UTC.
Position N 35°05' E 139°36'.

Length 82 m; draft 3.7 m.

Type: Cargo ship. MMSI: 440324000.

Date/timePositionNaut miles runAvg speedWind from/ knotsBaromVisibWave heightAir tempDewpointWater temp
2015-Feb-27 11:32N 35°05' E 139°36'1111.0
2015-Feb-27 10:33N 35°12' E 139°46'1010.4
2015-Feb-27 09:34N 35°22' E 139°42'6 5.5
2015-Feb-27 08:31N 35°28' E 139°42'0 0.0
2015-Feb-27 07:31N 35°28' E 139°42'0 0.0
2015-Feb-27 06:28N 35°28' E 139°42'0 0.0
2015-Feb-27 05:28N 35°28' E 139°42'0 0.0
2015-Feb-27 04:31N 35°28' E 139°42'0 0.0
2015-Feb-27 03:31N 35°28' E 139°42'0 0.0
2015-Feb-27 02:31N 35°28' E 139°42'0 0.0
2015-Feb-27 01:31N 35°28' E 139°42'0 0.0
2015-Feb-27 00:28N 35°28' E 139°42'0 0.0
2015-Feb-26 23:31N 35°28' E 139°42'0 0.0
2015-Feb-26 22:31N 35°28' E 139°42'0 0.0
2015-Feb-26 21:31N 35°28' E 139°42'0 0.0
2015-Feb-26 20:31N 35°28' E 139°42'0 0.0
2015-Feb-26 19:31N 35°28' E 139°42'0 0.0
2015-Feb-26 18:31N 35°28' E 139°42'0 0.0
2015-Feb-26 17:31N 35°28' E 139°42'0 0.0
2015-Feb-26 16:31N 35°28' E 139°42'0 0.0
2015-Feb-26 15:31N 35°28' E 139°42'0 0.0
2015-Feb-26 14:31N 35°28' E 139°42'0 0.0
2015-Feb-26 13:28N 35°28' E 139°42'0 0.0
2015-Feb-26 12:31N 35°28' E 139°42'0 0.0
2015-Feb-26 11:31N 35°28' E 139°42'0 0.0
2015-Feb-26 10:28N 35°28' E 139°42'0 0.0
2015-Feb-26 09:31N 35°28' E 139°42'0 0.2
2015-Feb-26 08:33N 35°28' E 139°42'1 1.4
2015-Feb-26 07:32N 35°27' E 139°43'0 0.0
2015-Feb-26 06:32N 35°27' E 139°43'0 0.0
2015-Feb-26 05:32N 35°27' E 139°43'0 0.0
2015-Feb-26 04:32N 35°27' E 139°43'0 0.0
2015-Feb-26 03:32N 35°27' E 139°43'0 0.0
2015-Feb-26 02:29N 35°27' E 139°43'0 0.0
2015-Feb-26 01:32N 35°27' E 139°43'0 0.0
2015-Feb-26 00:32N 35°27' E 139°43'0 0.0
2015-Feb-25 18:14N 35°27' E 139°43'0 0.1
2015-Feb-25 17:32N 35°27' E 139°43'0 0.0
2015-Feb-25 16:32N 35°27' E 139°43'0 0.0
2015-Feb-25 15:32N 35°27' E 139°43'0 0.1
2015-Feb-25 14:33N 35°27' E 139°43'10 9.4
2015-Feb-25 13:31N 35°32' E 139°53'3 0.1
2015-Feb-24 16:28N 35°34' E 139°55'910.2
2015-Feb-24 15:33N 35°26' E 139°48'9 9.1
2015-Feb-24 14:31N 35°17' E 139°45'9 9.6
2015-Feb-24 13:33N 35°08' E 139°45'245 9.1
2015-Feb-23 10:30N 33°57' E 135°00'9 9.9
2015-Feb-23 09:32N 34°07' E 134°60'1111.2
2015-Feb-23 08:33N 34°18' E 134°59'9 8.3
2015-Feb-23 07:28N 34°23' E 135°08'0 0.1
2015-Feb-23 06:32N 34°23' E 135°08'0 0.0
2015-Feb-22 22:08N 34°23' E 135°08'0 0.0
2015-Feb-22 21:20N 34°23' E 135°08'0 0.0
2015-Feb-22 19:32N 34°23' E 135°08'0 0.1
2015-Feb-22 18:26N 34°23' E 135°08'0 0.0
2015-Feb-22 11:11N 34°23' E 135°08'2 3.6
2015-Feb-22 10:34N 34°25' E 135°07'10 9.8
2015-Feb-22 09:33N 34°35' E 135°05'  
2015-Feb-18 04:11N 38°52' E 121°56'610.3
2015-Feb-18 03:33N 38°46' E 121°51'10 9.8
2015-Feb-18 02:33N 38°38' E 121°44'9 9.3
2015-Feb-18 01:33N 38°32' E 121°36'  
Track history (hours):
 
Tides and Currents Weather Stations Pressure Air Temp Water Temp Dewpoint Dewpoint Depression Visibility Wind Speed Wind Dir Waves Ship Positions

Ty Lotus

Last reported at 2015-Feb-27 11:32 UTC. Time now 2015-Feb-28 00:43 UTC.
Position N 35°05' E 139°36'.

Length 82 m; draft 3.7 m.

Type: Cargo ship. MMSI: 440324000.

Date/timePositionNaut miles runAvg speedWind from/ knotsBaromVisibWave heightAir tempDewpointWater temp
2015-Feb-27 11:32N 35°05' E 139°36'1111.0
2015-Feb-27 10:33N 35°12' E 139°46'1010.4
2015-Feb-27 09:34N 35°22' E 139°42'6 5.5
2015-Feb-27 08:31N 35°28' E 139°42'0 0.0
2015-Feb-27 07:31N 35°28' E 139°42'0 0.0
2015-Feb-27 06:28N 35°28' E 139°42'0 0.0
2015-Feb-27 05:28N 35°28' E 139°42'0 0.0
2015-Feb-27 04:31N 35°28' E 139°42'0 0.0
2015-Feb-27 03:31N 35°28' E 139°42'0 0.0
2015-Feb-27 02:31N 35°28' E 139°42'0 0.0
2015-Feb-27 01:31N 35°28' E 139°42'0 0.0
2015-Feb-27 00:28N 35°28' E 139°42'0 0.0
2015-Feb-26 23:31N 35°28' E 139°42'0 0.0
2015-Feb-26 22:31N 35°28' E 139°42'0 0.0
2015-Feb-26 21:31N 35°28' E 139°42'0 0.0
2015-Feb-26 20:31N 35°28' E 139°42'0 0.0
2015-Feb-26 19:31N 35°28' E 139°42'0 0.0
2015-Feb-26 18:31N 35°28' E 139°42'0 0.0
2015-Feb-26 17:31N 35°28' E 139°42'0 0.0
2015-Feb-26 16:31N 35°28' E 139°42'0 0.0
2015-Feb-26 15:31N 35°28' E 139°42'0 0.0
2015-Feb-26 14:31N 35°28' E 139°42'0 0.0
2015-Feb-26 13:28N 35°28' E 139°42'0 0.0
2015-Feb-26 12:31N 35°28' E 139°42'0 0.0
2015-Feb-26 11:31N 35°28' E 139°42'0 0.0
2015-Feb-26 10:28N 35°28' E 139°42'0 0.0
2015-Feb-26 09:31N 35°28' E 139°42'0 0.2
2015-Feb-26 08:33N 35°28' E 139°42'1 1.4
2015-Feb-26 07:32N 35°27' E 139°43'0 0.0
2015-Feb-26 06:32N 35°27' E 139°43'0 0.0
2015-Feb-26 05:32N 35°27' E 139°43'0 0.0
2015-Feb-26 04:32N 35°27' E 139°43'0 0.0
2015-Feb-26 03:32N 35°27' E 139°43'0 0.0
2015-Feb-26 02:29N 35°27' E 139°43'0 0.0
2015-Feb-26 01:32N 35°27' E 139°43'0 0.0
2015-Feb-26 00:32N 35°27' E 139°43'0 0.0
2015-Feb-25 18:14N 35°27' E 139°43'0 0.1
2015-Feb-25 17:32N 35°27' E 139°43'0 0.0
2015-Feb-25 16:32N 35°27' E 139°43'0 0.0
2015-Feb-25 15:32N 35°27' E 139°43'0 0.1
2015-Feb-25 14:33N 35°27' E 139°43'10 9.4
2015-Feb-25 13:31N 35°32' E 139°53'3 0.1
2015-Feb-24 16:28N 35°34' E 139°55'910.2
2015-Feb-24 15:33N 35°26' E 139°48'9 9.1
2015-Feb-24 14:31N 35°17' E 139°45'9 9.6
2015-Feb-24 13:33N 35°08' E 139°45'245 9.1
2015-Feb-23 10:30N 33°57' E 135°00'9 9.9
2015-Feb-23 09:32N 34°07' E 134°60'1111.2
2015-Feb-23 08:33N 34°18' E 134°59'9 8.3
2015-Feb-23 07:28N 34°23' E 135°08'0 0.1
2015-Feb-23 06:32N 34°23' E 135°08'0 0.0
2015-Feb-22 22:08N 34°23' E 135°08'0 0.0
2015-Feb-22 21:20N 34°23' E 135°08'0 0.0
2015-Feb-22 19:32N 34°23' E 135°08'0 0.1
2015-Feb-22 18:26N 34°23' E 135°08'0 0.0
2015-Feb-22 11:11N 34°23' E 135°08'2 3.6
2015-Feb-22 10:34N 34°25' E 135°07'10 9.8
2015-Feb-22 09:33N 34°35' E 135°05'  
2015-Feb-18 04:11N 38°52' E 121°56'610.3
2015-Feb-18 03:33N 38°46' E 121°51'10 9.8
2015-Feb-18 02:33N 38°38' E 121°44'9 9.3
2015-Feb-18 01:33N 38°32' E 121°36'  

Dump ship's entire track history